Time;durP1;ratioP1;P1;durP2;ratioP2;P2;SDS_P1;SDS_P2;PMS_P1;PMS_P2;Temp;Humidity;BMP_temperature;BMP_pressure;BME280_temperature;BME280_humidity;BME280_pressure;Samples;Min_cycle;Max_cycle;Signal;HPM_P1;HPM_P2
2022/01/01 00:00:12;;;;;;;6.57;6.07;;;;;;;11.52;77.85;99811.28;4972844;28;20223;-72
2022/01/01 00:02:39;;;;;;;6.10;5.70;;;;;;;11.51;77.66;99817.59;4973242;28;20589;-70
2022/01/01 00:05:07;;;;;;;6.70;6.13;;;;;;;11.43;78.04;99816.94;4973152;28;20200;-70
2022/01/01 00:07:34;;;;;;;5.10;4.80;;;;;;;11.34;78.25;99802.94;4972808;28;20196;-70
2022/01/01 00:10:03;;;;;;;5.80;5.30;;;;;;;11.32;78.32;99801.47;4973177;28;20197;-70
2022/01/01 00:12:30;;;;;;;6.47;5.97;;;;;;;11.26;78.55;99795.09;4972853;28;20192;-70
2022/01/01 00:14:57;;;;;;;7.20;6.50;;;;;;;11.37;78.36;99796.41;4972826;28;20684;-68
2022/01/01 00:17:23;;;;;;;9.63;7.43;;;;;;;11.44;77.98;99792.78;4972834;28;20669;-69
2022/01/01 00:19:50;;;;;;;9.73;6.23;;;;;;;11.42;77.82;99792.16;4973400;28;20250;-68
2022/01/01 00:22:17;;;;;;;6.23;5.73;;;;;;;11.37;77.79;99789.25;4973279;28;20250;-68
2022/01/01 00:24:44;;;;;;;10.23;7.17;;;;;;;11.36;78.05;99794.75;4973631;28;20276;-68
2022/01/01 00:27:12;;;;;;;7.23;6.53;;;;;;;11.30;78.17;99787.56;4973688;28;20199;-68
2022/01/01 00:29:38;;;;;;;7.50;6.70;;;;;;;11.33;78.27;99784.50;4973043;28;20200;-69
2022/01/01 00:32:06;;;;;;;6.57;5.97;;;;;;;11.35;78.10;99788.63;4973526;28;20200;-69
2022/01/01 00:34:34;;;;;;;9.03;7.20;;;;;;;11.36;77.67;99792.09;4973321;28;20260;-69
2022/01/01 00:37:00;;;;;;;7.03;6.33;;;;;;;11.34;77.94;99786.13;4973161;28;20739;-70
2022/01/01 00:39:27;;;;;;;6.43;5.83;;;;;;;11.35;77.81;99791.28;4972963;28;20577;-69
2022/01/01 00:41:54;;;;;;;4.60;4.20;;;;;;;11.28;77.97;99787.75;4973112;28;20228;-69
2022/01/01 00:44:22;;;;;;;4.50;4.20;;;;;;;11.25;77.94;99788.13;4973260;28;20200;-70
2022/01/01 00:46:48;;;;;;;5.20;4.90;;;;;;;11.18;78.26;99781.94;4972981;28;20201;-69
2022/01/01 00:49:15;;;;;;;8.80;8.10;;;;;;;11.30;77.80;99784.91;4972661;28;20192;-69
2022/01/01 00:51:42;;;;;;;5.53;5.23;;;;;;;11.37;77.90;99775.97;4972896;28;20282;-69
2022/01/01 00:54:09;;;;;;;4.00;3.80;;;;;;;11.34;77.27;99770.19;4973146;28;20207;-69
2022/01/01 00:56:36;;;;;;;3.80;3.50;;;;;;;11.42;77.22;99759.41;4973181;28;20201;-70
2022/01/01 00:59:02;;;;;;;3.70;3.40;;;;;;;11.40;77.14;99762.28;4973134;28;20196;-69
2022/01/01 01:01:31;;;;;;;3.50;3.30;;;;;;;11.46;76.84;99765.97;4972703;28;20255;-70
2022/01/01 01:03:57;;;;;;;3.53;3.33;;;;;;;11.54;76.58;99766.66;4973066;28;20263;-69
2022/01/01 01:06:24;;;;;;;3.60;3.30;;;;;;;11.58;76.64;99767.06;4972688;28;20197;-70
2022/01/01 01:08:53;;;;;;;3.77;3.47;;;;;;;11.62;76.68;99761.22;4973236;28;20259;-69
2022/01/01 01:11:20;;;;;;;3.50;3.30;;;;;;;11.71;75.94;99757.38;4973024;28;20282;-69
2022/01/01 01:13:55;;;;;;;3.40;3.20;;;;;;;11.76;75.44;99760.25;4972573;28;20256;-69
2022/01/01 01:16:22;;;;;;;3.80;3.50;;;;;;;11.70;75.48;99755.72;4972937;28;20196;-70
2022/01/01 01:18:53;;;;;;;3.77;3.50;;;;;;;11.68;75.67;99747.09;4972704;28;20201;-70
2022/01/01 01:21:19;;;;;;;3.53;3.33;;;;;;;11.69;75.64;99730.16;4972384;28;20623;-70
2022/01/01 01:23:47;;;;;;;3.10;2.90;;;;;;;11.63;75.85;99728.25;4972869;28;20200;-70
2022/01/01 01:26:14;;;;;;;3.43;3.23;;;;;;;11.61;75.82;99725.00;4972333;28;20288;-70
2022/01/01 01:28:47;;;;;;;3.87;3.50;;;;;;;11.58;76.02;99717.34;4973024;28;20262;-69
2022/01/01 01:31:14;;;;;;;4.00;3.80;;;;;;;11.52;76.20;99712.00;4972578;28;20197;-69
2022/01/01 01:33:40;;;;;;;4.00;3.80;;;;;;;11.57;76.46;99706.91;4972847;28;20195;-70
2022/01/01 01:36:09;;;;;;;4.87;4.57;;;;;;;11.45;76.85;99706.66;4972792;28;20258;-69
2022/01/01 01:38:36;;;;;;;4.70;4.30;;;;;;;11.46;76.73;99708.28;4973103;28;20196;-69
2022/01/01 01:41:03;;;;;;;4.07;3.77;;;;;;;11.35;77.18;99708.81;4972871;28;20220;-69
2022/01/01 01:43:30;;;;;;;4.30;4.00;;;;;;;11.25;77.51;99707.53;4973296;28;20664;-69
2022/01/01 01:46:02;;;;;;;4.03;3.73;;;;;;;11.31;77.18;99704.91;4972883;28;20197;-70
2022/01/01 01:48:29;;;;;;;4.10;3.80;;;;;;;11.34;77.32;99701.88;4973268;28;20236;-69
2022/01/01 01:50:56;;;;;;;3.83;3.63;;;;;;;11.21;77.73;99701.81;4973257;28;20274;-68
2022/01/01 01:53:25;;;;;;;5.67;5.30;;;;;;;11.05;78.38;99702.09;4972906;28;20188;-69
2022/01/01 01:55:52;;;;;;;7.13;6.50;;;;;;;10.99;78.68;99697.56;4973054;28;20622;-70
2022/01/01 01:58:19;;;;;;;6.30;5.83;;;;;;;10.87;79.26;99699.09;4973125;28;20259;-70
2022/01/01 02:01:09;;;;;;;4.90;4.70;;;;;;;10.97;79.16;99704.91;4975057;28;20200;-70
2022/01/01 02:03:36;;;;;;;4.10;3.90;;;;;;;10.94;79.23;99711.44;4976505;28;20279;-70
2022/01/01 02:06:06;;;;;;;3.87;3.63;;;;;;;11.02;79.26;99701.66;4976652;28;20195;-70
2022/01/01 02:08:34;;;;;;;6.03;3.70;;;;;;;11.00;79.03;99700.00;4976294;28;20200;-70
2022/01/01 02:11:01;;;;;;;3.90;3.60;;;;;;;10.94;78.76;99686.66;4976223;28;20246;-70
2022/01/01 02:13:32;;;;;;;4.10;3.80;;;;;;;10.98;78.47;99695.91;4976303;28;20191;-70
2022/01/01 02:16:26;;;;;;;3.87;3.67;;;;;;;10.94;78.37;99684.00;4976415;28;20215;-70
2022/01/01 02:18:55;;;;;;;5.87;3.60;;;;;;;10.96;78.26;99682.81;4977375;28;20209;-69
2022/01/01 02:21:23;;;;;;;4.00;3.60;;;;;;;10.96;78.16;99687.31;4975955;28;20224;-69
2022/01/01 02:23:57;;;;;;;4.23;3.93;;;;;;;10.91;78.77;99687.09;4976199;28;20263;-69
2022/01/01 02:26:29;;;;;;;5.20;4.80;;;;;;;10.85;78.97;99701.97;4976133;28;20195;-69
2022/01/01 02:28:56;;;;;;;6.30;5.80;;;;;;;10.91;78.82;99700.38;4976217;28;20258;-70
2022/01/01 02:31:23;;;;;;;4.13;3.93;;;;;;;11.04;77.90;99695.16;4976397;28;20203;-70
2022/01/01 02:33:49;;;;;;;11.17;6.10;;;;;;;11.06;78.25;99703.72;4976007;28;20663;-69
2022/01/01 02:36:28;;;;;;;20.73;8.33;;;;;;;11.07;77.81;99693.94;4976607;28;20202;-69
2022/01/01 02:38:56;;;;;;;20.60;9.03;;;;;;;11.04;78.04;99700.47;4976056;28;20245;-69
2022/01/01 02:41:23;;;;;;;14.43;7.40;;;;;;;11.13;77.79;99691.31;4976100;28;20224;-69
2022/01/01 02:43:50;;;;;;;10.60;6.47;;;;;;;11.19;77.71;99703.00;4976451;28;20259;-69
2022/01/01 02:46:16;;;;;;;18.70;10.40;;;;;;;11.14;77.58;99692.94;4976412;28;20259;-69
2022/01/01 02:48:45;;;;;;;23.47;12.97;;;;;;;11.20;77.59;99697.50;4976741;28;20209;-69
2022/01/01 02:51:12;;;;;;;11.57;8.43;;;;;;;11.21;77.50;99696.47;4975916;28;20227;-69
2022/01/01 02:53:42;;;;;;;12.07;9.33;;;;;;;11.12;77.57;99697.66;4976885;28;20189;-69
2022/01/01 02:56:10;;;;;;;19.87;11.60;;;;;;;11.07;77.85;99700.88;4975673;28;20247;-69
2022/01/01 02:58:37;;;;;;;14.63;9.77;;;;;;;11.00;78.61;99696.53;4976324;28;20200;-70
2022/01/01 03:01:04;;;;;;;8.50;7.67;;;;;;;11.05;77.85;99702.09;4975736;28;20200;-70
2022/01/01 03:03:30;;;;;;;6.87;6.10;;;;;;;11.11;78.09;99698.66;4975550;28;20676;-70
2022/01/01 03:05:57;;;;;;;5.77;5.33;;;;;;;11.13;77.41;99693.97;4975613;28;20200;-70
2022/01/01 03:08:24;;;;;;;5.87;5.57;;;;;;;10.98;78.59;99701.22;4975588;28;20201;-70
2022/01/01 03:10:50;;;;;;;4.80;4.37;;;;;;;11.02;78.43;99697.16;4974760;28;20196;-69
2022/01/01 03:13:19;;;;;;;5.27;4.77;;;;;;;11.02;78.73;99691.84;4975535;28;20198;-70
2022/01/01 03:15:45;;;;;;;4.20;3.80;;;;;;;10.98;79.03;99696.72;4975220;28;20193;-70
2022/01/01 03:18:12;;;;;;;6.33;5.77;;;;;;;10.99;79.35;99697.56;4975292;28;20199;-70
2022/01/01 03:20:39;;;;;;;7.23;6.63;;;;;;;11.03;79.69;99696.16;4975649;28;20259;-70
2022/01/01 03:23:06;;;;;;;5.40;5.10;;;;;;;11.14;78.88;99700.94;4975949;28;20236;-70
2022/01/01 03:25:32;;;;;;;4.40;4.10;;;;;;;11.11;78.59;99696.00;4975116;28;20258;-69
2022/01/01 03:27:59;;;;;;;8.40;6.70;;;;;;;11.05;78.85;99696.78;4975098;28;20198;-69
2022/01/01 03:30:27;;;;;;;6.27;5.77;;;;;;;11.02;78.81;99686.53;4974974;28;20731;-69
2022/01/01 03:32:54;;;;;;;9.57;8.77;;;;;;;11.09;78.29;99687.41;4975832;28;20240;-70
2022/01/01 03:35:21;;;;;;;4.43;4.13;;;;;;;10.96;79.09;99688.13;4974797;28;20259;-70
2022/01/01 03:37:47;;;;;;;3.20;3.00;;;;;;;10.83;79.62;99682.72;4974940;28;20199;-70
2022/01/01 03:40:14;;;;;;;2.80;2.70;;;;;;;10.77;80.25;99687.97;4974825;28;20760;-70
2022/01/01 03:42:41;;;;;;;3.03;2.70;;;;;;;10.81;80.22;99674.13;4974824;28;20286;-71
2022/01/01 03:45:09;;;;;;;2.33;2.23;;;;;;;10.90;80.01;99677.44;4974844;28;20199;-70
2022/01/01 03:47:37;;;;;;;3.37;3.10;;;;;;;11.02;79.53;99680.41;4974836;28;20197;-70
2022/01/01 03:50:05;;;;;;;3.23;2.93;;;;;;;11.08;79.11;99675.94;4975029;28;20259;-70
2022/01/01 03:52:32;;;;;;;2.87;2.77;;;;;;;11.15;79.07;99681.28;4974400;28;20778;-70
2022/01/01 03:54:58;;;;;;;3.10;2.97;;;;;;;11.26;78.58;99677.28;4974862;28;20196;-70
2022/01/01 03:57:25;;;;;;;3.10;3.00;;;;;;;11.34;78.50;99680.59;4974473;28;20205;-69
2022/01/01 03:59:52;;;;;;;3.00;2.90;;;;;;;11.45;78.08;99668.59;4974482;28;20249;-70
2022/01/01 04:02:18;;;;;;;3.50;3.30;;;;;;;11.45;78.06;99669.41;4975442;28;20573;-69
2022/01/01 04:04:46;;;;;;;3.10;2.90;;;;;;;11.40;77.40;99669.19;4974820;28;20208;-69
2022/01/01 04:07:13;;;;;;;2.70;2.60;;;;;;;11.36;78.01;99662.63;4974312;28;20200;-69
2022/01/01 04:09:40;;;;;;;3.27;3.07;;;;;;;11.37;78.29;99658.94;4974354;28;20200;-69
2022/01/01 04:12:07;;;;;;;2.60;2.40;;;;;;;11.44;77.82;99641.19;4974190;28;20654;-68
2022/01/01 04:14:34;;;;;;;2.43;2.33;;;;;;;11.62;76.67;99646.81;4974774;28;20219;-70
2022/01/01 04:17:01;;;;;;;2.20;2.10;;;;;;;11.76;76.07;99648.47;4974452;28;20205;-69
2022/01/01 04:19:38;;;;;;;2.20;2.10;;;;;;;11.80;75.53;99648.94;4973984;28;20287;-69
2022/01/01 04:22:07;;;;;;;2.40;2.30;;;;;;;11.84;75.64;99639.53;4974235;28;20213;-69
2022/01/01 04:24:36;;;;;;;2.33;2.23;;;;;;;11.87;75.43;99634.59;4974843;28;20186;-70
2022/01/01 04:27:03;;;;;;;3.47;2.00;;;;;;;11.86;75.69;99638.28;4973985;28;20193;-69
2022/01/01 04:29:30;;;;;;;2.50;2.10;;;;;;;11.84;75.58;99637.66;4974254;28;20617;-70
2022/01/01 04:31:59;;;;;;;3.17;2.97;;;;;;;11.89;75.31;99631.75;4973849;28;20198;-69
2022/01/01 04:34:26;;;;;;;2.87;2.70;;;;;;;11.91;75.21;99629.69;4973830;28;20208;-69
2022/01/01 04:37:01;;;;;;;3.03;2.87;;;;;;;11.93;75.14;99628.50;4973881;28;20722;-70
2022/01/01 04:39:29;;;;;;;3.03;2.80;;;;;;;11.95;75.10;99630.94;4974748;28;20276;-70
2022/01/01 04:41:56;;;;;;;3.13;2.50;;;;;;;11.98;75.02;99639.34;4974021;28;20275;-70
2022/01/01 04:44:22;;;;;;;2.30;2.20;;;;;;;12.04;74.44;99641.19;4973737;28;20260;-70
2022/01/01 04:46:49;;;;;;;2.97;2.77;;;;;;;11.99;74.96;99648.97;4973717;28;20198;-70
2022/01/01 04:49:16;;;;;;;2.37;2.27;;;;;;;11.96;75.19;99627.28;4973916;28;20252;-70
2022/01/01 04:51:43;;;;;;;2.40;2.30;;;;;;;11.96;75.13;99633.41;4974135;28;20241;-70
2022/01/01 04:54:15;;;;;;;2.73;2.60;;;;;;;12.03;74.99;99634.25;4973923;28;20643;-70
2022/01/01 04:56:44;;;;;;;2.40;2.30;;;;;;;11.97;75.13;99634.22;4973589;28;20275;-70
2022/01/01 04:59:12;;;;;;;2.20;2.10;;;;;;;11.90;75.54;99633.38;4974603;28;20203;-70
2022/01/01 05:01:39;;;;;;;2.00;1.90;;;;;;;11.89;75.57;99631.75;4973762;28;20204;-71
2022/01/01 05:04:06;;;;;;;2.43;2.23;;;;;;;11.94;75.38;99639.94;4974490;28;20223;-70
2022/01/01 05:06:34;;;;;;;2.00;2.00;;;;;;;11.99;74.92;99638.31;4973631;28;20271;-70
2022/01/01 05:09:01;;;;;;;2.23;2.13;;;;;;;12.05;74.93;99631.38;4973959;28;20196;-70
2022/01/01 05:11:28;;;;;;;1.70;1.60;;;;;;;12.14;75.08;99633.66;4973355;28;20596;-70
2022/01/01 05:13:56;;;;;;;1.80;1.70;;;;;;;12.24;74.76;99625.25;4973635;28;20196;-70
2022/01/01 05:16:23;;;;;;;2.00;1.90;;;;;;;12.30;74.62;99641.25;4973183;28;20205;-70
2022/01/01 05:18:50;;;;;;;2.00;1.90;;;;;;;12.30;74.31;99635.09;4974340;28;20194;-70
2022/01/01 05:21:16;;;;;;;2.10;2.00;;;;;;;12.33;74.35;99627.50;4974058;28;20246;-69
2022/01/01 05:23:43;;;;;;;2.17;1.80;;;;;;;12.42;74.12;99636.94;4973177;28;20272;-70
2022/01/01 05:26:12;;;;;;;1.93;1.83;;;;;;;12.47;74.05;99637.16;4973756;28;20260;-70
2022/01/01 05:28:39;;;;;;;1.93;1.83;;;;;;;12.45;73.96;99631.22;4973157;28;20201;-70
2022/01/01 05:31:07;;;;;;;2.50;2.30;;;;;;;12.41;73.91;99632.66;4989931;28;20198;-70
2022/01/01 05:33:34;;;;;;;2.00;1.90;;;;;;;12.46;73.50;99640.03;4992451;28;20624;-69
2022/01/01 05:36:00;;;;;;;2.27;2.07;;;;;;;12.37;74.01;99639.41;4996849;28;20197;-70
2022/01/01 05:38:27;;;;;;;2.00;1.90;;;;;;;12.35;74.07;99632.63;4996270;28;20196;-70
2022/01/01 05:40:54;;;;;;;2.30;2.10;;;;;;;12.33;74.01;99630.19;4996733;28;20198;-69
2022/01/01 05:43:22;;;;;;;2.37;2.27;;;;;;;12.33;73.81;99640.84;4996363;28;20344;-70
2022/01/01 05:45:48;;;;;;;2.60;2.40;;;;;;;12.30;73.42;99643.91;4996737;28;20204;-70
2022/01/01 05:48:17;;;;;;;2.20;2.10;;;;;;;12.21;73.64;99645.13;4996357;28;20197;-70
2022/01/01 05:50:43;;;;;;;2.20;2.10;;;;;;;12.14;73.69;99646.97;4996107;28;20198;-70
2022/01/01 05:53:10;;;;;;;2.27;2.17;;;;;;;12.23;73.09;99652.91;4997399;28;20188;-70
2022/01/01 05:55:37;;;;;;;2.60;2.43;;;;;;;12.15;73.38;99658.41;4996521;28;20202;-70
2022/01/01 05:58:05;;;;;;;2.37;2.27;;;;;;;12.22;73.34;99644.13;4996125;28;20259;-70
2022/01/01 06:00:32;;;;;;;4.77;2.47;;;;;;;12.18;73.52;99642.03;4996464;28;20200;-70
2022/01/01 06:02:59;;;;;;;2.40;2.30;;;;;;;12.26;73.48;99649.84;4996444;28;20220;-70
2022/01/01 06:05:27;;;;;;;2.43;2.33;;;;;;;12.18;73.35;99656.19;4996032;28;20232;-70
2022/01/01 06:07:55;;;;;;;2.60;2.40;;;;;;;12.17;73.60;99657.19;4996299;28;20197;-70
2022/01/01 06:10:22;;;;;;;2.63;2.43;;;;;;;12.21;73.18;99662.97;4996219;28;20203;-69
2022/01/01 06:12:48;;;;;;;2.37;2.17;;;;;;;12.14;73.07;99654.97;4995899;28;20671;-70
2022/01/01 06:15:15;;;;;;;2.67;2.47;;;;;;;12.04;73.22;99654.50;4996162;28;20193;-70
2022/01/01 06:17:42;;;;;;;2.67;2.50;;;;;;;12.11;72.78;99644.69;4996093;28;20356;-70
2022/01/01 06:20:10;;;;;;;2.70;2.50;;;;;;;12.07;72.69;99659.44;4995730;28;20196;-69
2022/01/01 06:22:38;;;;;;;2.83;2.67;;;;;;;12.01;73.00;99657.56;4995823;28;20223;-69
2022/01/01 06:25:09;;;;;;;3.10;2.90;;;;;;;11.97;73.15;99660.84;4995664;28;20200;-69
2022/01/01 06:27:36;;;;;;;3.13;2.90;;;;;;;12.05;73.16;99668.66;4995875;28;20189;-69
2022/01/01 06:30:02;;;;;;;6.63;6.23;;;;;;;12.09;72.93;99685.88;4995942;28;20271;-69
2022/01/01 06:32:31;;;;;;;3.10;3.00;;;;;;;12.06;73.18;99676.44;4995825;28;20283;-69
2022/01/01 06:34:58;;;;;;;3.10;3.00;;;;;;;12.04;73.51;99683.78;4995835;28;20259;-70
2022/01/01 06:37:25;;;;;;;3.17;2.97;;;;;;;12.07;73.86;99687.91;4995418;28;20217;-70
2022/01/01 06:39:53;;;;;;;2.93;2.70;;;;;;;12.12;73.57;99686.28;4995058;28;20274;-71
2022/01/01 06:42:20;;;;;;;4.03;3.63;;;;;;;12.12;73.73;99696.94;4995327;28;20769;-70
2022/01/01 06:44:47;;;;;;;4.20;3.90;;;;;;;12.22;73.58;99692.06;4995604;28;20258;-70
2022/01/01 06:47:13;;;;;;;2.80;2.60;;;;;;;12.29;73.36;99681.41;4994664;28;20209;-70
2022/01/01 06:49:40;;;;;;;3.13;2.67;;;;;;;12.25;73.46;99680.19;4995775;28;20198;-70
2022/01/01 06:52:10;;;;;;;2.90;2.70;;;;;;;12.32;73.27;99675.66;4994916;28;20234;-69
2022/01/01 06:54:36;;;;;;;3.03;2.83;;;;;;;12.36;73.06;99683.06;4994978;28;20199;-69
2022/01/01 06:57:07;;;;;;;3.30;3.10;;;;;;;12.36;73.06;99683.06;4995020;28;20691;-69
2022/01/01 06:59:36;;;;;;;2.93;2.73;;;;;;;12.42;72.81;99687.56;4995911;28;20271;-71
2022/01/01 07:02:03;;;;;;;2.97;2.80;;;;;;;12.56;72.59;99689.22;4991764;28;20200;-70
2022/01/01 07:04:30;;;;;;;44.43;4.57;;;;;;;12.69;71.91;99697.22;4985092;28;20255;-71
2022/01/01 07:06:57;;;;;;;3.17;2.77;;;;;;;12.78;70.88;99701.31;4986860;28;20252;-71
2022/01/01 07:09:23;;;;;;;4.87;3.70;;;;;;;12.85;70.16;99704.00;4975230;28;20257;-71
2022/01/01 07:11:50;;;;;;;4.43;4.13;;;;;;;12.91;69.38;99709.31;4987953;28;20206;-71
2022/01/01 07:14:21;;;;;;;4.00;3.70;;;;;;;12.92;69.54;99708.31;4994870;28;20206;-70
2022/01/01 07:16:52;;;;;;;3.87;3.57;;;;;;;12.96;69.41;99722.03;4994464;28;20845;-70
2022/01/01 07:19:19;;;;;;;1.80;1.70;;;;;;;13.22;82.53;99696.19;4990352;28;20222;-71
2022/01/01 07:21:46;;;;;;;2.77;2.33;;;;;;;13.55;73.17;99717.47;4975169;28;20203;-73
2022/01/01 07:24:12;;;;;;;3.30;3.10;;;;;;;13.78;69.57;99726.66;4974901;28;20235;-69
2022/01/01 07:26:39;;;;;;;3.63;3.43;;;;;;;13.66;66.73;99739.00;4975347;28;20223;-72
2022/01/01 07:29:08;;;;;;;4.30;3.27;;;;;;;13.54;67.17;99745.19;4975273;28;20750;-71
2022/01/01 07:31:36;;;;;;;3.53;3.33;;;;;;;13.37;67.42;99736.81;4969772;28;20200;-72
2022/01/01 07:34:03;;;;;;;3.23;3.03;;;;;;;13.34;67.52;99747.91;4993212;28;20203;-71
2022/01/01 07:36:30;;;;;;;3.67;3.33;;;;;;;13.18;68.13;99743.00;4988293;28;20192;-71
2022/01/01 07:38:56;;;;;;;3.73;3.47;;;;;;;13.26;70.26;99723.28;4974797;28;20266;-80
2022/01/01 07:41:23;;;;;;;3.93;3.63;;;;;;;13.61;70.19;99730.81;4973984;28;20612;-77
2022/01/01 07:43:50;;;;;;;4.10;3.53;;;;;;;13.71;67.62;99739.19;4974949;28;20286;-71
2022/01/01 07:46:16;;;;;;;3.60;3.30;;;;;;;13.73;66.42;99744.34;4974198;28;20195;-72
2022/01/01 07:48:44;;;;;;;4.43;3.30;;;;;;;13.76;66.38;99741.25;4974450;28;20623;-71
2022/01/01 07:51:11;;;;;;;3.60;3.40;;;;;;;13.79;65.94;99738.13;4974792;28;20257;-71
2022/01/01 07:53:38;;;;;;;3.70;2.90;;;;;;;13.89;65.38;99733.97;4972665;28;20188;-69
2022/01/01 07:56:05;;;;;;;4.10;3.00;;;;;;;13.82;65.99;99732.38;4970949;28;20633;-70
2022/01/01 07:58:32;;;;;;;3.60;3.40;;;;;;;13.81;65.46;99728.88;4973252;28;20630;-70
2022/01/01 08:00:59;;;;;;;3.03;2.83;;;;;;;13.82;65.73;99733.22;4966516;28;20203;-71
2022/01/01 08:03:26;;;;;;;2.83;2.63;;;;;;;13.85;65.71;99719.41;4972994;28;20221;-70
2022/01/01 08:05:54;;;;;;;2.57;2.37;;;;;;;13.81;66.02;99723.53;4973571;28;20201;-70
2022/01/01 08:08:21;;;;;;;4.73;2.90;;;;;;;13.82;65.55;99714.53;4973363;28;20195;-71
2022/01/01 08:10:48;;;;;;;3.10;2.90;;;;;;;13.93;65.45;99705.81;4979059;28;20191;-69
2022/01/01 08:13:22;;;;;;;3.20;3.00;;;;;;;13.92;65.36;99728.22;4981735;28;20254;-69
2022/01/01 08:15:49;;;;;;;4.50;3.70;;;;;;;13.97;65.15;99719.59;4972544;28;20724;-71
2022/01/01 08:18:16;;;;;;;4.10;3.77;;;;;;;14.01;65.78;99713.59;4972387;28;20197;-71
2022/01/01 08:20:43;;;;;;;3.33;3.13;;;;;;;14.06;65.27;99716.47;4972206;28;20625;-71
2022/01/01 08:23:11;;;;;;;3.30;3.00;;;;;;;14.16;64.97;99727.50;4971998;28;20219;-71
2022/01/01 08:25:38;;;;;;;5.23;4.70;;;;;;;14.24;65.09;99718.44;4972464;28;20258;-70
2022/01/01 08:28:06;;;;;;;4.53;4.13;;;;;;;14.38;64.99;99712.81;4972386;28;20191;-71
2022/01/01 08:30:33;;;;;;;4.17;3.87;;;;;;;14.53;64.40;99723.22;4972050;28;20203;-71
2022/01/01 08:33:01;;;;;;;3.73;3.43;;;;;;;14.54;63.74;99725.66;4973075;28;20203;-71
2022/01/01 08:35:28;;;;;;;5.57;4.70;;;;;;;14.63;63.55;99729.72;4991665;28;20685;-71
2022/01/01 08:37:55;;;;;;;11.70;10.47;;;;;;;14.77;63.78;99741.16;4991939;28;20198;-69
2022/01/01 08:40:23;;;;;;;4.40;4.10;;;;;;;14.79;62.97;99737.22;4991422;28;20257;-69
2022/01/01 08:42:49;;;;;;;3.83;3.47;;;;;;;14.76;63.38;99731.50;4991665;28;20195;-68
2022/01/01 08:45:16;;;;;;;5.00;4.53;;;;;;;14.81;63.60;99737.00;4991698;28;20199;-68
2022/01/01 08:47:43;;;;;;;2.97;2.77;;;;;;;14.72;64.05;99744.50;4991860;28;20202;-67
2022/01/01 08:50:11;;;;;;;2.50;2.40;;;;;;;14.70;64.46;99751.88;4991971;28;20729;-68
2022/01/01 08:52:37;;;;;;;3.00;2.80;;;;;;;14.77;64.04;99746.50;4992061;28;20222;-69
2022/01/01 08:55:05;;;;;;;4.03;3.73;;;;;;;14.82;64.01;99750.16;4991912;28;20249;-68
2022/01/01 08:57:36;;;;;;;5.17;4.47;;;;;;;14.88;63.42;99769.88;4992335;28;20257;-68
2022/01/01 09:00:06;;;;;;;5.77;4.03;;;;;;;14.83;63.45;99762.50;4992104;28;20190;-71
2022/01/01 09:02:33;;;;;;;4.13;3.83;;;;;;;14.90;63.93;99765.94;4992193;28;20276;-69
2022/01/01 09:04:59;;;;;;;4.17;3.87;;;;;;;14.95;64.00;99762.63;4991360;28;20817;-67
2022/01/01 09:07:28;;;;;;;4.17;3.77;;;;;;;15.07;63.52;99764.38;4991811;28;20199;-68
2022/01/01 09:09:55;;;;;;;3.97;3.67;;;;;;;15.14;63.57;99757.13;4991165;28;20194;-68
2022/01/01 09:12:21;;;;;;;5.03;4.03;;;;;;;15.35;63.19;99754.06;4972853;28;20195;-69
2022/01/01 09:14:49;;;;;;;5.80;5.30;;;;;;;15.54;62.72;99753.06;4972386;28;20200;-68
2022/01/01 09:17:16;;;;;;;4.87;4.57;;;;;;;15.54;62.95;99754.91;4972308;28;20199;-68
2022/01/01 09:19:43;;;;;;;3.80;3.43;;;;;;;15.67;62.05;99760.97;4973210;28;20203;-67
2022/01/01 09:22:10;;;;;;;3.30;3.10;;;;;;;15.78;62.02;99762.91;4972812;28;20191;-68
2022/01/01 09:24:36;;;;;;;3.63;3.43;;;;;;;15.70;62.78;99749.81;4972094;28;20219;-69
2022/01/01 09:27:04;;;;;;;4.07;3.77;;;;;;;15.79;62.60;99753.84;4972834;28;20360;-66
2022/01/01 09:29:31;;;;;;;4.07;3.80;;;;;;;15.82;62.90;99747.22;4972577;28;20622;-67
2022/01/01 09:32:00;;;;;;;3.97;3.20;;;;;;;15.86;62.78;99749.19;4972940;28;20251;-70
2022/01/01 09:34:27;;;;;;;7.60;7.10;;;;;;;16.08;62.65;99738.84;4972819;28;20203;-69
2022/01/01 09:36:54;;;;;;;7.57;6.87;;;;;;;16.04;62.66;99739.53;4973292;28;20195;-68
2022/01/01 09:39:21;;;;;;;4.10;3.63;;;;;;;16.05;62.52;99741.97;4972974;28;20191;-69
2022/01/01 09:41:50;;;;;;;6.90;6.33;;;;;;;16.08;62.79;99740.72;4972910;28;20192;-69
2022/01/01 09:44:18;;;;;;;6.83;6.33;;;;;;;16.20;62.62;99744.28;4972479;28;20227;-67
2022/01/01 09:46:48;;;;;;;7.40;6.90;;;;;;;16.20;62.47;99749.66;4972479;28;20203;-71
2022/01/01 09:49:17;;;;;;;7.30;6.70;;;;;;;16.10;62.54;99746.66;4972946;28;20195;-69
2022/01/01 09:51:45;;;;;;;4.37;4.07;;;;;;;16.12;62.33;99749.94;4972223;28;20239;-74
2022/01/01 09:54:15;;;;;;;5.27;4.97;;;;;;;15.98;63.08;99742.06;4972836;28;20634;-74
2022/01/01 09:56:41;;;;;;;4.90;4.60;;;;;;;15.94;63.18;99737.38;4973004;28;20192;-74
2022/01/01 09:59:08;;;;;;;7.40;6.80;;;;;;;15.98;62.81;99742.06;4972701;28;20191;-72
2022/01/01 10:01:35;;;;;;;7.13;6.63;;;;;;;16.16;62.71;99738.53;4972692;28;20667;-72
2022/01/01 10:04:12;;;;;;;7.70;7.10;;;;;;;16.44;62.07;99735.31;4972481;28;20231;-68
2022/01/01 10:06:40;;;;;;;4.07;3.87;;;;;;;16.66;61.33;99736.44;4972553;28;20258;-70
2022/01/01 10:09:09;;;;;;;4.83;4.23;;;;;;;16.98;60.41;99743.16;4972741;28;20201;-72
2022/01/01 10:11:37;;;;;;;10.90;9.13;;;;;;;17.17;59.26;99728.59;4985543;28;20201;-71
2022/01/01 10:14:07;;;;;;;5.70;5.23;;;;;;;17.26;59.08;99729.88;4991725;28;20315;-72
2022/01/01 10:16:41;;;;;;;5.97;5.57;;;;;;;17.33;58.80;99723.34;4992203;28;20229;-71
2022/01/01 10:19:08;;;;;;;9.53;5.60;;;;;;;17.38;58.37;99731.53;4992027;28;20189;-71
2022/01/01 10:21:40;;;;;;;5.33;5.03;;;;;;;17.35;57.99;99723.91;4994007;28;20206;-71
2022/01/01 10:24:12;;;;;;;6.47;6.07;;;;;;;17.31;58.88;99716.59;4995918;28;20207;-72
2022/01/01 10:29:27;;;;;;;5.40;4.10;;;;;;;17.31;58.68;99720.06;4995544;28;20237;-71
2022/01/01 10:31:58;;;;;;;4.90;4.60;;;;;;;17.21;58.39;99710.97;4995536;28;20249;-73
2022/01/01 10:34:27;;;;;;;6.83;6.20;;;;;;;17.11;58.97;99718.78;4995397;28;20556;-75
2022/01/01 10:36:54;;;;;;;5.07;4.67;;;;;;;17.02;58.81;99717.50;4995525;28;20198;-72
2022/01/01 10:39:23;;;;;;;5.90;4.40;;;;;;;16.88;59.16;99713.38;4995350;28;20205;-71
2022/01/01 10:41:53;;;;;;;3.93;3.63;;;;;;;17.02;58.67;99717.50;4995584;28;20260;-70
2022/01/01 10:44:28;;;;;;;6.40;5.90;;;;;;;17.10;58.51;99711.75;4992163;28;20248;-71
2022/01/01 10:46:55;;;;;;;10.43;8.00;;;;;;;17.31;58.17;99713.91;4995240;28;20186;-69
2022/01/01 10:49:32;;;;;;;7.23;6.67;;;;;;;17.48;57.32;99717.53;4994784;28;20200;-70
2022/01/01 10:52:15;;;;;;;5.13;4.60;;;;;;;17.54;57.08;99711.22;4995166;28;20236;-71
2022/01/01 10:54:55;;;;;;;3.30;3.10;;;;;;;17.60;56.55;99715.66;4994643;28;20624;-71
2022/01/01 10:57:34;;;;;;;4.27;4.00;;;;;;;17.58;56.01;99715.06;4994115;28;20631;-71
2022/01/01 11:00:13;;;;;;;24.70;4.30;;;;;;;17.59;55.95;99714.00;4993637;28;20200;-71
2022/01/01 11:02:43;;;;;;;3.47;2.10;;;;;;;17.35;55.92;99712.38;4992658;28;20241;-72
2022/01/01 11:05:13;;;;;;;3.20;3.00;;;;;;;17.47;56.34;99705.16;4992197;28;20233;-70
2022/01/01 11:07:50;;;;;;;6.17;2.13;;;;;;;17.73;56.33;99720.78;4993384;28;20257;-71
2022/01/01 11:10:19;;;;;;;2.70;2.60;;;;;;;17.87;56.09;99706.00;4984211;28;20187;-71
2022/01/01 11:12:46;;;;;;;3.43;2.27;;;;;;;17.93;55.85;99713.13;4993169;28;20198;-71
2022/01/01 11:15:14;;;;;;;2.10;2.00;;;;;;;17.86;55.06;99709.75;4989785;28;20207;-71
2022/01/01 11:17:43;;;;;;;3.37;3.17;;;;;;;17.88;55.23;99715.72;4974905;28;20191;-71
2022/01/01 11:20:11;;;;;;;4.40;3.07;;;;;;;17.85;55.24;99716.19;4988133;28;20191;-71
2022/01/01 11:22:37;;;;;;;3.90;2.50;;;;;;;17.73;55.13;99710.81;4994201;28;20190;-71
2022/01/01 11:25:05;;;;;;;2.40;2.17;;;;;;;17.62;55.47;99700.09;4993697;28;20286;-71
2022/01/01 11:27:34;;;;;;;11.80;3.17;;;;;;;17.77;55.56;99711.97;4984389;28;20264;-71
2022/01/01 11:30:04;;;;;;;5.80;2.70;;;;;;;17.89;55.46;99709.28;4974965;28;20201;-72
2022/01/01 11:32:41;;;;;;;2.57;2.47;;;;;;;18.03;55.15;99705.25;4974680;28;20191;-72
2022/01/01 11:35:10;;;;;;;2.50;2.30;;;;;;;18.18;54.66;99702.88;4974639;28;20250;-72
2022/01/01 11:37:58;;;;;;;3.00;2.80;;;;;;;18.24;54.60;99708.13;4974879;28;20195;-72